Terminal Aerodrome Forecast
Issued by NWS St Louis, MO

Home | Current Version | Previous Version | Text Only | Print | Product List | Glossary On
Versions: 1 2 3 4 5 6 7 8 9 10 11 12 13 14 15 16 17 18 19 20 21 22 23 24 25 26
385
FTUS43 KLSX 121721
TAFSTL
TAF
KSTL 121721Z 1218/1324 31012KT P6SM BKN025
     FM122200 32012G22KT P6SM SCT035
      TEMPO 1222/1224 BKN035
     FM130000 34009KT P6SM SCT250
     FM131600 36006KT P6SM SCT015 BKN100=

USA.gov is the U.S. government's official web portal to all federal, state and local government web resources and services.